sensor_id;sensor_type;location;lat;lon;timestamp;temperature;humidity
45643;DHT22;31358;46.008;11.144;2023-04-24T00:01:42;13.50;99.90
45643;DHT22;31358;46.008;11.144;2023-04-24T00:04:08;13.50;99.90
45643;DHT22;31358;46.008;11.144;2023-04-24T00:06:36;13.40;99.90
45643;DHT22;31358;46.008;11.144;2023-04-24T00:09:03;13.40;99.90
45643;DHT22;31358;46.008;11.144;2023-04-24T00:11:29;13.10;99.90
45643;DHT22;31358;46.008;11.144;2023-04-24T00:13:56;12.90;99.90
45643;DHT22;31358;46.008;11.144;2023-04-24T00:16:22;12.70;99.90
45643;DHT22;31358;46.008;11.144;2023-04-24T00:18:48;12.40;99.90
45643;DHT22;31358;46.008;11.144;2023-04-24T00:21:14;12.40;99.90
45643;DHT22;31358;46.008;11.144;2023-04-24T00:23:43;12.40;99.90
45643;DHT22;31358;46.008;11.144;2023-04-24T00:26:09;12.40;99.90
45643;DHT22;31358;46.008;11.144;2023-04-24T00:28:34;12.70;99.90
45643;DHT22;31358;46.008;11.144;2023-04-24T00:31:00;12.70;99.90
45643;DHT22;31358;46.008;11.144;2023-04-24T00:33:26;12.80;99.90
45643;DHT22;31358;46.008;11.144;2023-04-24T00:35:52;12.80;99.90
45643;DHT22;31358;46.008;11.144;2023-04-24T00:38:18;12.80;99.90
45643;DHT22;31358;46.008;11.144;2023-04-24T00:40:44;13.00;99.90
45643;DHT22;31358;46.008;11.144;2023-04-24T00:43:10;12.80;99.90
45643;DHT22;31358;46.008;11.144;2023-04-24T00:45:36;12.50;99.90
45643;DHT22;31358;46.008;11.144;2023-04-24T00:48:02;12.40;99.90
45643;DHT22;31358;46.008;11.144;2023-04-24T00:50:28;12.40;99.90
45643;DHT22;31358;46.008;11.144;2023-04-24T00:52:54;12.50;99.90
45643;DHT22;31358;46.008;11.144;2023-04-24T00:55:20;12.70;99.90
45643;DHT22;31358;46.008;11.144;2023-04-24T00:57:47;12.90;99.90
45643;DHT22;31358;46.008;11.144;2023-04-24T01:00:14;13.00;99.90
45643;DHT22;31358;46.008;11.144;2023-04-24T01:02:41;12.90;99.90
45643;DHT22;31358;46.008;11.144;2023-04-24T01:05:14;12.90;99.90
45643;DHT22;31358;46.008;11.144;2023-04-24T01:07:41;12.70;99.90
45643;DHT22;31358;46.008;11.144;2023-04-24T01:10:11;12.60;99.90
45643;DHT22;31358;46.008;11.144;2023-04-24T01:12:37;12.50;99.90
45643;DHT22;31358;46.008;11.144;2023-04-24T01:15:03;12.50;99.90
45643;DHT22;31358;46.008;11.144;2023-04-24T01:17:29;12.70;99.90
45643;DHT22;31358;46.008;11.144;2023-04-24T01:19:55;12.70;99.90
45643;DHT22;31358;46.008;11.144;2023-04-24T01:22:22;12.30;99.90
45643;DHT22;31358;46.008;11.144;2023-04-24T01:24:48;12.40;99.90
45643;DHT22;31358;46.008;11.144;2023-04-24T01:27:14;12.60;99.90
45643;DHT22;31358;46.008;11.144;2023-04-24T01:29:40;12.70;99.90
45643;DHT22;31358;46.008;11.144;2023-04-24T01:32:06;12.60;99.90
45643;DHT22;31358;46.008;11.144;2023-04-24T01:34:32;12.60;99.90
45643;DHT22;31358;46.008;11.144;2023-04-24T01:36:58;12.60;99.90
45643;DHT22;31358;46.008;11.144;2023-04-24T01:39:24;12.60;99.90
45643;DHT22;31358;46.008;11.144;2023-04-24T01:41:51;12.60;99.90
45643;DHT22;31358;46.008;11.144;2023-04-24T01:44:18;12.50;99.90
45643;DHT22;31358;46.008;11.144;2023-04-24T01:46:44;12.60;99.90
45643;DHT22;31358;46.008;11.144;2023-04-24T01:49:10;12.60;99.90
45643;DHT22;31358;46.008;11.144;2023-04-24T01:51:35;12.50;99.90
45643;DHT22;31358;46.008;11.144;2023-04-24T01:54:01;12.30;99.90
45643;DHT22;31358;46.008;11.144;2023-04-24T01:56:29;12.30;99.90
45643;DHT22;31358;46.008;11.144;2023-04-24T01:58:56;12.40;99.90
45643;DHT22;31358;46.008;11.144;2023-04-24T02:01:24;12.20;99.90
45643;DHT22;31358;46.008;11.144;2023-04-24T02:03:50;12.30;99.90
45643;DHT22;31358;46.008;11.144;2023-04-24T02:06:15;12.40;99.90
45643;DHT22;31358;46.008;11.144;2023-04-24T02:08:41;12.30;99.90
45643;DHT22;31358;46.008;11.144;2023-04-24T02:11:09;12.40;99.90
45643;DHT22;31358;46.008;11.144;2023-04-24T02:13:35;12.40;99.90
45643;DHT22;31358;46.008;11.144;2023-04-24T02:16:01;12.40;99.90
45643;DHT22;31358;46.008;11.144;2023-04-24T02:18:26;12.40;99.90
45643;DHT22;31358;46.008;11.144;2023-04-24T02:20:52;12.40;99.90
45643;DHT22;31358;46.008;11.144;2023-04-24T02:23:18;12.40;99.90
45643;DHT22;31358;46.008;11.144;2023-04-24T02:25:43;12.40;99.90
45643;DHT22;31358;46.008;11.144;2023-04-24T02:28:09;12.30;99.90
45643;DHT22;31358;46.008;11.144;2023-04-24T02:30:35;12.40;99.90
45643;DHT22;31358;46.008;11.144;2023-04-24T02:33:00;12.50;99.90
45643;DHT22;31358;46.008;11.144;2023-04-24T02:35:26;12.40;99.90
45643;DHT22;31358;46.008;11.144;2023-04-24T02:37:52;12.40;99.90
45643;DHT22;31358;46.008;11.144;2023-04-24T02:40:17;12.20;99.90
45643;DHT22;31358;46.008;11.144;2023-04-24T02:42:43;12.30;99.90
45643;DHT22;31358;46.008;11.144;2023-04-24T02:45:09;12.50;99.90
45643;DHT22;31358;46.008;11.144;2023-04-24T02:47:35;12.60;99.90
45643;DHT22;31358;46.008;11.144;2023-04-24T02:50:02;12.50;99.90
45643;DHT22;31358;46.008;11.144;2023-04-24T02:52:28;12.50;99.90
45643;DHT22;31358;46.008;11.144;2023-04-24T02:54:53;12.50;99.90
45643;DHT22;31358;46.008;11.144;2023-04-24T02:57:19;12.60;99.90
45643;DHT22;31358;46.008;11.144;2023-04-24T02:59:45;12.60;99.90
45643;DHT22;31358;46.008;11.144;2023-04-24T03:02:10;12.70;99.90
45643;DHT22;31358;46.008;11.144;2023-04-24T03:04:36;12.60;99.90
45643;DHT22;31358;46.008;11.144;2023-04-24T03:07:02;12.60;99.90
45643;DHT22;31358;46.008;11.144;2023-04-24T03:09:27;12.60;99.90
45643;DHT22;31358;46.008;11.144;2023-04-24T03:11:53;12.70;99.90
45643;DHT22;31358;46.008;11.144;2023-04-24T03:14:19;12.70;99.90
45643;DHT22;31358;46.008;11.144;2023-04-24T03:16:44;12.80;99.90
45643;DHT22;31358;46.008;11.144;2023-04-24T03:19:10;12.80;99.90
45643;DHT22;31358;46.008;11.144;2023-04-24T03:21:36;12.80;99.90
45643;DHT22;31358;46.008;11.144;2023-04-24T03:24:09;12.80;99.90
45643;DHT22;31358;46.008;11.144;2023-04-24T03:26:37;12.70;99.90
45643;DHT22;31358;46.008;11.144;2023-04-24T03:29:03;12.60;99.90
45643;DHT22;31358;46.008;11.144;2023-04-24T03:31:28;12.40;99.90
45643;DHT22;31358;46.008;11.144;2023-04-24T03:33:54;12.30;99.90
45643;DHT22;31358;46.008;11.144;2023-04-24T03:36:20;12.40;99.90
45643;DHT22;31358;46.008;11.144;2023-04-24T03:38:46;12.50;99.90
45643;DHT22;31358;46.008;11.144;2023-04-24T03:41:12;12.50;99.90
45643;DHT22;31358;46.008;11.144;2023-04-24T03:43:37;12.50;99.90
45643;DHT22;31358;46.008;11.144;2023-04-24T03:46:03;12.50;99.90
45643;DHT22;31358;46.008;11.144;2023-04-24T03:48:29;12.50;99.90
45643;DHT22;31358;46.008;11.144;2023-04-24T03:50:55;12.60;99.90
45643;DHT22;31358;46.008;11.144;2023-04-24T03:53:21;12.60;99.90
45643;DHT22;31358;46.008;11.144;2023-04-24T03:55:47;12.50;99.90
45643;DHT22;31358;46.008;11.144;2023-04-24T03:58:13;12.60;99.90
45643;DHT22;31358;46.008;11.144;2023-04-24T04:00:41;12.60;99.90
45643;DHT22;31358;46.008;11.144;2023-04-24T04:03:06;12.50;99.90
45643;DHT22;31358;46.008;11.144;2023-04-24T04:05:32;12.40;99.90
45643;DHT22;31358;46.008;11.144;2023-04-24T04:07:58;12.40;99.90
45643;DHT22;31358;46.008;11.144;2023-04-24T04:10:23;12.30;99.90
45643;DHT22;31358;46.008;11.144;2023-04-24T04:12:49;12.40;99.90
45643;DHT22;31358;46.008;11.144;2023-04-24T04:15:15;12.30;99.90
45643;DHT22;31358;46.008;11.144;2023-04-24T04:17:40;12.30;99.90
45643;DHT22;31358;46.008;11.144;2023-04-24T04:20:07;12.10;99.90
45643;DHT22;31358;46.008;11.144;2023-04-24T04:22:36;12.10;99.90
45643;DHT22;31358;46.008;11.144;2023-04-24T04:25:02;12.10;99.90
45643;DHT22;31358;46.008;11.144;2023-04-24T04:27:28;12.10;99.90
45643;DHT22;31358;46.008;11.144;2023-04-24T04:30:03;12.10;99.90
45643;DHT22;31358;46.008;11.144;2023-04-24T04:32:34;12.20;99.90
45643;DHT22;31358;46.008;11.144;2023-04-24T04:35:00;12.20;99.90
45643;DHT22;31358;46.008;11.144;2023-04-24T04:37:30;12.30;99.90
45643;DHT22;31358;46.008;11.144;2023-04-24T04:39:59;12.30;99.90
45643;DHT22;31358;46.008;11.144;2023-04-24T04:42:28;12.20;99.90
45643;DHT22;31358;46.008;11.144;2023-04-24T04:44:54;12.30;99.90
45643;DHT22;31358;46.008;11.144;2023-04-24T04:47:21;12.20;99.90
45643;DHT22;31358;46.008;11.144;2023-04-24T04:49:48;12.10;99.90
45643;DHT22;31358;46.008;11.144;2023-04-24T04:52:14;12.10;99.90
45643;DHT22;31358;46.008;11.144;2023-04-24T04:54:41;12.00;99.90
45643;DHT22;31358;46.008;11.144;2023-04-24T04:57:06;12.00;99.90
45643;DHT22;31358;46.008;11.144;2023-04-24T04:59:32;12.10;99.90
45643;DHT22;31358;46.008;11.144;2023-04-24T05:01:58;12.10;99.90
45643;DHT22;31358;46.008;11.144;2023-04-24T05:04:23;12.10;99.90
45643;DHT22;31358;46.008;11.144;2023-04-24T05:06:49;12.10;99.90
45643;DHT22;31358;46.008;11.144;2023-04-24T05:09:16;12.00;99.90
45643;DHT22;31358;46.008;11.144;2023-04-24T05:11:42;11.50;99.90
45643;DHT22;31358;46.008;11.144;2023-04-24T05:14:07;11.20;99.90
45643;DHT22;31358;46.008;11.144;2023-04-24T05:16:33;10.90;99.90
45643;DHT22;31358;46.008;11.144;2023-04-24T05:18:59;10.80;99.90
45643;DHT22;31358;46.008;11.144;2023-04-24T05:21:24;10.80;99.90
45643;DHT22;31358;46.008;11.144;2023-04-24T05:23:50;11.00;99.90
45643;DHT22;31358;46.008;11.144;2023-04-24T05:26:16;10.80;99.90
45643;DHT22;31358;46.008;11.144;2023-04-24T05:28:43;10.70;99.90
45643;DHT22;31358;46.008;11.144;2023-04-24T05:31:08;10.60;99.90
45643;DHT22;31358;46.008;11.144;2023-04-24T05:33:34;10.20;99.90
45643;DHT22;31358;46.008;11.144;2023-04-24T05:36:00;10.40;99.90
45643;DHT22;31358;46.008;11.144;2023-04-24T05:38:25;10.00;99.90
45643;DHT22;31358;46.008;11.144;2023-04-24T05:40:51;10.10;99.90
45643;DHT22;31358;46.008;11.144;2023-04-24T05:43:17;10.10;99.90
45643;DHT22;31358;46.008;11.144;2023-04-24T05:45:42;10.20;99.90
45643;DHT22;31358;46.008;11.144;2023-04-24T05:48:08;10.30;99.90
45643;DHT22;31358;46.008;11.144;2023-04-24T05:50:34;10.10;99.90
45643;DHT22;31358;46.008;11.144;2023-04-24T05:52:59;10.10;99.90
45643;DHT22;31358;46.008;11.144;2023-04-24T05:55:27;10.30;99.90
45643;DHT22;31358;46.008;11.144;2023-04-24T05:57:53;10.20;99.90
45643;DHT22;31358;46.008;11.144;2023-04-24T06:00:19;10.20;99.90
45643;DHT22;31358;46.008;11.144;2023-04-24T06:02:45;10.20;99.90
45643;DHT22;31358;46.008;11.144;2023-04-24T06:05:11;10.40;99.90
45643;DHT22;31358;46.008;11.144;2023-04-24T06:07:37;10.20;99.90
45643;DHT22;31358;46.008;11.144;2023-04-24T06:10:03;10.30;99.90
45643;DHT22;31358;46.008;11.144;2023-04-24T06:12:28;10.40;99.90
45643;DHT22;31358;46.008;11.144;2023-04-24T06:14:54;10.30;99.90
45643;DHT22;31358;46.008;11.144;2023-04-24T06:17:21;10.10;99.90
45643;DHT22;31358;46.008;11.144;2023-04-24T06:19:46;10.20;99.90
45643;DHT22;31358;46.008;11.144;2023-04-24T06:22:12;10.10;99.90
45643;DHT22;31358;46.008;11.144;2023-04-24T06:24:39;10.20;99.90
45643;DHT22;31358;46.008;11.144;2023-04-24T06:27:05;10.30;99.90
45643;DHT22;31358;46.008;11.144;2023-04-24T06:29:31;10.20;99.90
45643;DHT22;31358;46.008;11.144;2023-04-24T06:31:57;10.10;99.90
45643;DHT22;31358;46.008;11.144;2023-04-24T06:34:22;10.10;99.90
45643;DHT22;31358;46.008;11.144;2023-04-24T06:36:48;10.00;99.90
45643;DHT22;31358;46.008;11.144;2023-04-24T06:39:14;10.10;99.90
45643;DHT22;31358;46.008;11.144;2023-04-24T06:41:40;9.90;99.90
45643;DHT22;31358;46.008;11.144;2023-04-24T06:44:05;10.10;99.90
45643;DHT22;31358;46.008;11.144;2023-04-24T06:46:31;10.10;99.90
45643;DHT22;31358;46.008;11.144;2023-04-24T06:48:57;10.10;99.90
45643;DHT22;31358;46.008;11.144;2023-04-24T06:51:24;10.20;99.90
45643;DHT22;31358;46.008;11.144;2023-04-24T06:53:50;10.20;99.90
45643;DHT22;31358;46.008;11.144;2023-04-24T06:56:16;10.20;99.90
45643;DHT22;31358;46.008;11.144;2023-04-24T06:58:42;10.10;99.90
45643;DHT22;31358;46.008;11.144;2023-04-24T07:01:07;10.10;99.90
45643;DHT22;31358;46.008;11.144;2023-04-24T07:03:33;10.20;99.90
45643;DHT22;31358;46.008;11.144;2023-04-24T07:05:59;10.10;99.90
45643;DHT22;31358;46.008;11.144;2023-04-24T07:08:24;10.20;99.90
45643;DHT22;31358;46.008;11.144;2023-04-24T07:10:50;10.20;99.90
45643;DHT22;31358;46.008;11.144;2023-04-24T07:13:16;10.20;99.90
45643;DHT22;31358;46.008;11.144;2023-04-24T07:15:43;10.30;99.90
45643;DHT22;31358;46.008;11.144;2023-04-24T07:18:08;10.20;99.90
45643;DHT22;31358;46.008;11.144;2023-04-24T07:20:34;10.30;99.90
45643;DHT22;31358;46.008;11.144;2023-04-24T07:23:00;10.20;99.90
45643;DHT22;31358;46.008;11.144;2023-04-24T07:25:26;10.10;99.90
45643;DHT22;31358;46.008;11.144;2023-04-24T07:27:52;10.20;99.90
45643;DHT22;31358;46.008;11.144;2023-04-24T07:30:18;10.20;99.90
45643;DHT22;31358;46.008;11.144;2023-04-24T07:32:44;10.10;99.90
45643;DHT22;31358;46.008;11.144;2023-04-24T07:35:09;10.20;99.90
45643;DHT22;31358;46.008;11.144;2023-04-24T07:37:35;10.30;99.90
45643;DHT22;31358;46.008;11.144;2023-04-24T07:40:01;10.30;99.90
45643;DHT22;31358;46.008;11.144;2023-04-24T07:42:28;10.40;99.90
45643;DHT22;31358;46.008;11.144;2023-04-24T07:44:55;10.30;99.90
45643;DHT22;31358;46.008;11.144;2023-04-24T07:47:21;10.40;99.90
45643;DHT22;31358;46.008;11.144;2023-04-24T07:49:47;10.30;99.90
45643;DHT22;31358;46.008;11.144;2023-04-24T07:52:12;10.30;99.90
45643;DHT22;31358;46.008;11.144;2023-04-24T07:54:38;10.30;99.90
45643;DHT22;31358;46.008;11.144;2023-04-24T07:57:04;10.50;99.90
45643;DHT22;31358;46.008;11.144;2023-04-24T07:59:32;10.60;99.90
45643;DHT22;31358;46.008;11.144;2023-04-24T08:01:57;10.40;99.90
45643;DHT22;31358;46.008;11.144;2023-04-24T08:04:23;10.30;99.90
45643;DHT22;31358;46.008;11.144;2023-04-24T08:06:48;10.40;99.90
45643;DHT22;31358;46.008;11.144;2023-04-24T08:09:14;10.40;99.90
45643;DHT22;31358;46.008;11.144;2023-04-24T08:11:40;10.50;99.90
45643;DHT22;31358;46.008;11.144;2023-04-24T08:14:05;10.60;99.90
45643;DHT22;31358;46.008;11.144;2023-04-24T08:16:32;10.60;99.90
45643;DHT22;31358;46.008;11.144;2023-04-24T08:18:58;10.80;99.90
45643;DHT22;31358;46.008;11.144;2023-04-24T08:21:24;10.70;99.90
45643;DHT22;31358;46.008;11.144;2023-04-24T08:23:52;10.60;99.90
45643;DHT22;31358;46.008;11.144;2023-04-24T08:26:18;10.40;99.90
45643;DHT22;31358;46.008;11.144;2023-04-24T08:28:43;10.50;99.90
45643;DHT22;31358;46.008;11.144;2023-04-24T08:31:09;10.60;99.90
45643;DHT22;31358;46.008;11.144;2023-04-24T08:33:35;10.80;99.90
45643;DHT22;31358;46.008;11.144;2023-04-24T08:36:03;10.80;99.90
45643;DHT22;31358;46.008;11.144;2023-04-24T08:38:28;10.90;99.90
45643;DHT22;31358;46.008;11.144;2023-04-24T08:40:56;10.90;99.90
45643;DHT22;31358;46.008;11.144;2023-04-24T08:43:22;11.00;99.90
45643;DHT22;31358;46.008;11.144;2023-04-24T08:45:48;11.20;99.90
45643;DHT22;31358;46.008;11.144;2023-04-24T08:48:14;11.00;99.90
45643;DHT22;31358;46.008;11.144;2023-04-24T08:50:40;11.20;99.90
45643;DHT22;31358;46.008;11.144;2023-04-24T08:53:08;11.30;99.90
45643;DHT22;31358;46.008;11.144;2023-04-24T08:55:34;11.40;99.90
45643;DHT22;31358;46.008;11.144;2023-04-24T08:58:01;11.50;99.90
45643;DHT22;31358;46.008;11.144;2023-04-24T09:00:28;11.50;99.90
45643;DHT22;31358;46.008;11.144;2023-04-24T09:02:55;11.70;99.90
45643;DHT22;31358;46.008;11.144;2023-04-24T09:05:22;11.80;99.90
45643;DHT22;31358;46.008;11.144;2023-04-24T09:07:56;11.90;99.90
45643;DHT22;31358;46.008;11.144;2023-04-24T09:10:23;12.00;99.90
45643;DHT22;31358;46.008;11.144;2023-04-24T09:12:52;11.90;99.90
45643;DHT22;31358;46.008;11.144;2023-04-24T09:15:19;12.20;99.90
45643;DHT22;31358;46.008;11.144;2023-04-24T09:17:46;12.40;99.90
45643;DHT22;31358;46.008;11.144;2023-04-24T09:20:12;12.60;99.90
45643;DHT22;31358;46.008;11.144;2023-04-24T09:22:38;12.60;99.90
45643;DHT22;31358;46.008;11.144;2023-04-24T09:25:06;12.90;99.90
45643;DHT22;31358;46.008;11.144;2023-04-24T09:27:33;13.00;99.90
45643;DHT22;31358;46.008;11.144;2023-04-24T09:29:59;13.00;99.90
45643;DHT22;31358;46.008;11.144;2023-04-24T09:32:25;12.80;99.90
45643;DHT22;31358;46.008;11.144;2023-04-24T09:35:11;12.90;99.90
45643;DHT22;31358;46.008;11.144;2023-04-24T09:37:47;13.00;99.90
45643;DHT22;31358;46.008;11.144;2023-04-24T09:40:21;13.10;99.90
45643;DHT22;31358;46.008;11.144;2023-04-24T09:42:55;13.20;99.90
45643;DHT22;31358;46.008;11.144;2023-04-24T09:45:27;13.10;99.90
45643;DHT22;31358;46.008;11.144;2023-04-24T09:47:52;13.10;99.90
45643;DHT22;31358;46.008;11.144;2023-04-24T09:50:21;13.10;99.90
45643;DHT22;31358;46.008;11.144;2023-04-24T09:52:59;13.00;99.90
45643;DHT22;31358;46.008;11.144;2023-04-24T09:55:27;12.90;99.90
45643;DHT22;31358;46.008;11.144;2023-04-24T09:57:58;13.00;99.90
45643;DHT22;31358;46.008;11.144;2023-04-24T10:00:29;13.00;99.90
45643;DHT22;31358;46.008;11.144;2023-04-24T10:03:05;13.10;99.90
45643;DHT22;31358;46.008;11.144;2023-04-24T10:05:35;13.30;99.90
45643;DHT22;31358;46.008;11.144;2023-04-24T10:08:02;13.50;99.90
45643;DHT22;31358;46.008;11.144;2023-04-24T10:10:29;13.60;99.90
45643;DHT22;31358;46.008;11.144;2023-04-24T10:12:55;13.50;99.90
45643;DHT22;31358;46.008;11.144;2023-04-24T10:15:21;13.50;99.90
45643;DHT22;31358;46.008;11.144;2023-04-24T10:17:50;13.70;99.90
45643;DHT22;31358;46.008;11.144;2023-04-24T10:20:24;13.50;99.90
45643;DHT22;31358;46.008;11.144;2023-04-24T10:22:51;13.60;99.90
45643;DHT22;31358;46.008;11.144;2023-04-24T10:25:22;13.70;99.90
45643;DHT22;31358;46.008;11.144;2023-04-24T10:27:49;13.70;99.90
45643;DHT22;31358;46.008;11.144;2023-04-24T10:30:15;13.70;99.90
45643;DHT22;31358;46.008;11.144;2023-04-24T10:32:41;13.60;99.90
45643;DHT22;31358;46.008;11.144;2023-04-24T10:35:08;13.70;99.90
45643;DHT22;31358;46.008;11.144;2023-04-24T10:37:40;13.60;99.90
45643;DHT22;31358;46.008;11.144;2023-04-24T10:40:09;13.80;99.90
45643;DHT22;31358;46.008;11.144;2023-04-24T10:42:36;13.90;99.90
45643;DHT22;31358;46.008;11.144;2023-04-24T10:45:06;13.90;99.90
45643;DHT22;31358;46.008;11.144;2023-04-24T10:47:40;14.00;99.90
45643;DHT22;31358;46.008;11.144;2023-04-24T10:50:10;14.00;99.90
45643;DHT22;31358;46.008;11.144;2023-04-24T10:52:49;14.00;99.90
45643;DHT22;31358;46.008;11.144;2023-04-24T10:55:44;14.30;99.90
45643;DHT22;31358;46.008;11.144;2023-04-24T10:58:10;14.50;99.90
45643;DHT22;31358;46.008;11.144;2023-04-24T11:00:40;14.70;99.90
45643;DHT22;31358;46.008;11.144;2023-04-24T11:03:22;14.70;99.90
45643;DHT22;31358;46.008;11.144;2023-04-24T11:05:58;14.70;99.90
45643;DHT22;31358;46.008;11.144;2023-04-24T11:08:32;14.80;99.90
45643;DHT22;31358;46.008;11.144;2023-04-24T11:14:00;15.00;99.90
45643;DHT22;31358;46.008;11.144;2023-04-24T11:16:20;15.10;99.90
45643;DHT22;31358;46.008;11.144;2023-04-24T11:18:51;15.10;99.90
45643;DHT22;31358;46.008;11.144;2023-04-24T11:21:18;15.20;99.90
45643;DHT22;31358;46.008;11.144;2023-04-24T11:23:45;15.20;99.90
45643;DHT22;31358;46.008;11.144;2023-04-24T11:26:19;15.30;99.90
45643;DHT22;31358;46.008;11.144;2023-04-24T11:28:50;15.40;99.90
45643;DHT22;31358;46.008;11.144;2023-04-24T11:31:38;15.40;99.90
45643;DHT22;31358;46.008;11.144;2023-04-24T11:34:13;15.30;99.90
45643;DHT22;31358;46.008;11.144;2023-04-24T11:36:42;14.90;99.90
45643;DHT22;31358;46.008;11.144;2023-04-24T11:39:08;15.40;99.90
45643;DHT22;31358;46.008;11.144;2023-04-24T11:41:35;15.50;99.90
45643;DHT22;31358;46.008;11.144;2023-04-24T11:44:01;15.50;99.90
45643;DHT22;31358;46.008;11.144;2023-04-24T11:46:31;15.80;99.90
45643;DHT22;31358;46.008;11.144;2023-04-24T11:48:58;15.70;99.90
45643;DHT22;31358;46.008;11.144;2023-04-24T11:51:28;16.00;99.90
45643;DHT22;31358;46.008;11.144;2023-04-24T11:53:55;16.10;99.90
45643;DHT22;31358;46.008;11.144;2023-04-24T11:56:24;16.30;99.90
45643;DHT22;31358;46.008;11.144;2023-04-24T11:58:53;16.10;99.40
45643;DHT22;31358;46.008;11.144;2023-04-24T12:01:20;16.00;98.80
45643;DHT22;31358;46.008;11.144;2023-04-24T12:03:50;16.10;99.90
45643;DHT22;31358;46.008;11.144;2023-04-24T12:06:17;16.00;99.80
45643;DHT22;31358;46.008;11.144;2023-04-24T12:08:46;16.50;99.20
45643;DHT22;31358;46.008;11.144;2023-04-24T12:11:15;16.90;99.40
45643;DHT22;31358;46.008;11.144;2023-04-24T12:13:41;17.10;98.70
45643;DHT22;31358;46.008;11.144;2023-04-24T12:16:06;17.10;98.10
45643;DHT22;31358;46.008;11.144;2023-04-24T12:18:32;16.80;97.60
45643;DHT22;31358;46.008;11.144;2023-04-24T12:21:23;16.80;98.40
45643;DHT22;31358;46.008;11.144;2023-04-24T12:23:54;16.80;98.40
45643;DHT22;31358;46.008;11.144;2023-04-24T12:26:20;17.00;99.10
45643;DHT22;31358;46.008;11.144;2023-04-24T12:28:49;17.30;99.20
45643;DHT22;31358;46.008;11.144;2023-04-24T12:31:17;17.10;98.00
45643;DHT22;31358;46.008;11.144;2023-04-24T12:33:45;17.00;98.20
45643;DHT22;31358;46.008;11.144;2023-04-24T12:36:12;17.30;99.90
45643;DHT22;31358;46.008;11.144;2023-04-24T12:38:37;17.30;98.40
45643;DHT22;31358;46.008;11.144;2023-04-24T12:41:11;17.10;98.20
45643;DHT22;31358;46.008;11.144;2023-04-24T12:43:37;17.40;98.60
45643;DHT22;31358;46.008;11.144;2023-04-24T12:46:03;17.50;97.80
45643;DHT22;31358;46.008;11.144;2023-04-24T12:48:30;17.70;98.30
45643;DHT22;31358;46.008;11.144;2023-04-24T12:51:00;17.40;97.50
45643;DHT22;31358;46.008;11.144;2023-04-24T12:53:29;17.60;97.60
45643;DHT22;31358;46.008;11.144;2023-04-24T12:55:57;17.80;97.50
45643;DHT22;31358;46.008;11.144;2023-04-24T12:58:23;17.90;96.90
45643;DHT22;31358;46.008;11.144;2023-04-24T13:00:50;18.10;97.00
45643;DHT22;31358;46.008;11.144;2023-04-24T13:03:15;18.30;98.80
45643;DHT22;31358;46.008;11.144;2023-04-24T13:05:42;18.30;96.70
45643;DHT22;31358;46.008;11.144;2023-04-24T13:08:09;18.20;96.50
45643;DHT22;31358;46.008;11.144;2023-04-24T13:10:35;18.50;98.20
45643;DHT22;31358;46.008;11.144;2023-04-24T13:13:01;18.60;98.50
45643;DHT22;31358;46.008;11.144;2023-04-24T13:15:26;18.60;96.10
45643;DHT22;31358;46.008;11.144;2023-04-24T13:17:52;18.40;96.50
45643;DHT22;31358;46.008;11.144;2023-04-24T13:20:18;18.70;97.30
45643;DHT22;31358;46.008;11.144;2023-04-24T13:22:43;18.70;96.60
45643;DHT22;31358;46.008;11.144;2023-04-24T13:25:09;18.70;95.80
45643;DHT22;31358;46.008;11.144;2023-04-24T13:27:37;18.90;94.50
45643;DHT22;31358;46.008;11.144;2023-04-24T13:30:03;19.00;94.70
45643;DHT22;31358;46.008;11.144;2023-04-24T13:32:29;19.10;94.70
45643;DHT22;31358;46.008;11.144;2023-04-24T13:34:56;19.20;94.50
45643;DHT22;31358;46.008;11.144;2023-04-24T13:37:21;19.00;94.20
45643;DHT22;31358;46.008;11.144;2023-04-24T13:39:48;19.10;94.30
45643;DHT22;31358;46.008;11.144;2023-04-24T13:42:13;19.00;96.20
45643;DHT22;31358;46.008;11.144;2023-04-24T13:44:39;18.90;95.10
45643;DHT22;31358;46.008;11.144;2023-04-24T13:47:05;18.80;96.50
45643;DHT22;31358;46.008;11.144;2023-04-24T13:49:31;18.60;96.00
45643;DHT22;31358;46.008;11.144;2023-04-24T13:51:57;18.70;96.40
45643;DHT22;31358;46.008;11.144;2023-04-24T13:54:22;18.60;96.30
45643;DHT22;31358;46.008;11.144;2023-04-24T13:56:51;18.20;95.50
45643;DHT22;31358;46.008;11.144;2023-04-24T13:59:17;18.00;95.60
45643;DHT22;31358;46.008;11.144;2023-04-24T14:01:43;18.10;96.60
45643;DHT22;31358;46.008;11.144;2023-04-24T14:04:10;18.00;96.00
45643;DHT22;31358;46.008;11.144;2023-04-24T14:06:36;17.90;96.00
45643;DHT22;31358;46.008;11.144;2023-04-24T14:09:02;17.90;96.00
45643;DHT22;31358;46.008;11.144;2023-04-24T14:11:28;17.90;96.60
45643;DHT22;31358;46.008;11.144;2023-04-24T14:13:55;17.90;96.90
45643;DHT22;31358;46.008;11.144;2023-04-24T14:16:22;18.00;96.80
45643;DHT22;31358;46.008;11.144;2023-04-24T14:18:47;17.90;96.60
45643;DHT22;31358;46.008;11.144;2023-04-24T14:21:13;17.80;96.70
45643;DHT22;31358;46.008;11.144;2023-04-24T14:23:39;17.80;97.30
45643;DHT22;31358;46.008;11.144;2023-04-24T14:26:04;17.70;97.80
45643;DHT22;31358;46.008;11.144;2023-04-24T14:28:30;17.70;98.30
45643;DHT22;31358;46.008;11.144;2023-04-24T14:30:56;17.60;96.90
45643;DHT22;31358;46.008;11.144;2023-04-24T14:33:21;17.50;96.90
45643;DHT22;31358;46.008;11.144;2023-04-24T14:35:47;17.50;97.70
45643;DHT22;31358;46.008;11.144;2023-04-24T14:38:13;17.50;98.20
45643;DHT22;31358;46.008;11.144;2023-04-24T14:40:40;17.50;99.60
45643;DHT22;31358;46.008;11.144;2023-04-24T14:43:06;17.40;99.20
45643;DHT22;31358;46.008;11.144;2023-04-24T14:45:32;17.40;98.70
45643;DHT22;31358;46.008;11.144;2023-04-24T14:47:58;17.20;99.50
45643;DHT22;31358;46.008;11.144;2023-04-24T14:50:23;16.90;99.30
45643;DHT22;31358;46.008;11.144;2023-04-24T14:52:53;16.90;98.90
45643;DHT22;31358;46.008;11.144;2023-04-24T14:55:20;16.90;98.90
45643;DHT22;31358;46.008;11.144;2023-04-24T14:57:45;16.90;99.50
45643;DHT22;31358;46.008;11.144;2023-04-24T15:00:12;16.80;99.90
45643;DHT22;31358;46.008;11.144;2023-04-24T15:02:38;16.80;99.90
45643;DHT22;31358;46.008;11.144;2023-04-24T15:05:07;16.80;99.50
45643;DHT22;31358;46.008;11.144;2023-04-24T15:07:33;16.80;99.80
45643;DHT22;31358;46.008;11.144;2023-04-24T15:10:00;16.90;99.50
45643;DHT22;31358;46.008;11.144;2023-04-24T15:12:26;16.90;99.50
45643;DHT22;31358;46.008;11.144;2023-04-24T15:14:54;17.10;99.90
45643;DHT22;31358;46.008;11.144;2023-04-24T15:17:19;17.40;99.40